createdAt,value
2018-05-08T00:00:25.486Z,10.30
2018-05-08T00:02:53.013Z,10.20
2018-05-08T00:05:20.575Z,10.10
2018-05-08T00:07:48.139Z,10.10
2018-05-08T00:10:15.695Z,10.00
2018-05-08T00:12:43.263Z,10.10
2018-05-08T00:15:10.807Z,10.10
2018-05-08T00:17:38.349Z,10.10
2018-05-08T00:20:05.881Z,10.10
2018-05-08T00:22:33.442Z,10.00
2018-05-08T00:25:01.010Z,10.00
2018-05-08T00:27:28.574Z,10.10
2018-05-08T00:29:56.125Z,10.10
2018-05-08T00:32:23.663Z,10.00
2018-05-08T00:34:51.241Z,10.00
2018-05-08T00:37:18.773Z,9.90
2018-05-08T00:39:47.077Z,9.90
2018-05-08T00:42:14.646Z,9.90
2018-05-08T00:44:42.210Z,9.90
2018-05-08T00:47:09.769Z,9.90
2018-05-08T00:49:37.313Z,9.90
2018-05-08T00:52:05.639Z,9.80
2018-05-08T00:54:44.799Z,9.80
2018-05-08T00:57:12.350Z,9.70
2018-05-08T00:59:39.893Z,9.60
2018-05-08T01:02:07.425Z,9.70
2018-05-08T01:04:35.723Z,9.20
2018-05-08T01:07:03.279Z,9.20
2018-05-08T01:09:30.828Z,8.90
2018-05-08T01:11:59.162Z,9.10
2018-05-08T01:14:26.709Z,9.10
2018-05-08T01:16:54.299Z,9.00
2018-05-08T01:19:21.879Z,9.00
2018-05-08T01:21:49.442Z,8.90
2018-05-08T01:24:17.009Z,9.00
2018-05-08T01:26:44.557Z,9.00
2018-05-08T01:29:12.093Z,8.90
2018-05-08T01:31:39.661Z,8.90
2018-05-08T01:34:07.226Z,9.00
2018-05-08T01:36:34.788Z,9.00
2018-05-08T01:39:02.337Z,8.90
2018-05-08T01:41:29.913Z,8.90
2018-05-08T01:43:57.453Z,8.80
2018-05-08T01:46:24.988Z,8.70
2018-05-08T01:48:52.555Z,8.60
2018-05-08T01:51:20.862Z,8.60
2018-05-08T01:53:48.471Z,8.60
2018-05-08T01:56:16.007Z,8.70
2018-05-08T01:58:43.542Z,8.50
2018-05-08T02:01:11.825Z,8.20
2018-05-08T02:03:40.158Z,8.10
2018-05-08T02:06:07.720Z,8.10
2018-05-08T02:08:35.268Z,8.00
2018-05-08T02:11:02.804Z,7.90
2018-05-08T02:13:31.122Z,7.80
2018-05-08T02:15:58.678Z,7.80
2018-05-08T02:18:26.215Z,7.80
2018-05-08T02:20:53.774Z,7.80
2018-05-08T02:23:22.098Z,7.70
2018-05-08T02:25:49.654Z,7.70
2018-05-08T02:28:17.172Z,7.70
2018-05-08T02:30:45.562Z,7.80
2018-05-08T02:33:13.896Z,7.80
2018-05-08T02:35:41.454Z,7.70
2018-05-08T02:38:08.991Z,7.70
2018-05-08T02:40:36.546Z,7.60
2018-05-08T02:43:04.114Z,7.70
2018-05-08T02:45:31.666Z,7.70
2018-05-08T02:47:59.994Z,7.50
2018-05-08T02:50:27.558Z,7.50
2018-05-08T02:52:55.125Z,7.60
2018-05-08T02:55:22.679Z,7.70
2018-05-08T02:57:50.216Z,7.60
2018-05-08T03:00:17.766Z,7.70
2018-05-08T03:02:46.067Z,7.70
2018-05-08T03:05:13.590Z,7.70
2018-05-08T03:07:41.130Z,7.70
2018-05-08T03:10:08.663Z,7.70
2018-05-08T03:12:36.190Z,7.70
2018-05-08T03:15:04.510Z,7.70
2018-05-08T03:17:32.061Z,7.70
2018-05-08T03:19:59.589Z,7.90
2018-05-08T03:22:27.240Z,7.90
2018-05-08T03:24:55.490Z,7.90
2018-05-08T03:27:23.047Z,7.90
2018-05-08T03:29:50.569Z,8.00
2018-05-08T03:32:18.867Z,8.00
2018-05-08T03:34:46.397Z,8.00
2018-05-08T03:37:13.946Z,7.90
2018-05-08T03:39:41.501Z,7.80
2018-05-08T03:42:09.043Z,7.70
2018-05-08T03:44:36.595Z,7.60
2018-05-08T03:47:04.158Z,7.70
2018-05-08T03:49:31.761Z,7.80
2018-05-08T03:51:59.295Z,7.80
2018-05-08T03:54:26.825Z,7.90
2018-05-08T03:56:54.355Z,8.10
2018-05-08T03:59:21.877Z,8.20
2018-05-08T04:02:01.339Z,8.20
2018-05-08T04:04:40.875Z,8.20
2018-05-08T04:07:20.157Z,8.20
2018-05-08T04:09:48.445Z,8.40
2018-05-08T04:12:16.742Z,8.40
2018-05-08T04:14:44.297Z,8.40
2018-05-08T04:17:11.859Z,8.50
2018-05-08T04:19:40.405Z,8.60
2018-05-08T04:22:08.195Z,8.60
2018-05-08T04:24:35.805Z,8.70
2018-05-08T04:27:03.348Z,8.70
2018-05-08T04:29:31.653Z,8.80
2018-05-08T04:31:59.179Z,8.70
2018-05-08T04:34:27.483Z,9.00
2018-05-08T04:36:55.057Z,9.00
2018-05-08T04:39:22.590Z,9.10
2018-05-08T04:41:50.900Z,9.30
2018-05-08T04:44:18.428Z,9.20
2018-05-08T04:46:45.972Z,9.40
2018-05-08T04:49:13.490Z,9.50
2018-05-08T04:51:41.023Z,9.50
2018-05-08T04:54:09.346Z,9.70
2018-05-08T04:56:36.866Z,9.70
2018-05-08T04:59:05.187Z,9.90
2018-05-08T05:01:32.747Z,9.90
2018-05-08T05:04:00.311Z,10.00
2018-05-08T05:06:27.878Z,10.10
2018-05-08T05:08:55.414Z,10.30
2018-05-08T05:11:23.740Z,10.60
2018-05-08T05:13:51.283Z,10.50
2018-05-08T05:16:18.827Z,10.70
2018-05-08T05:18:46.428Z,10.90
2018-05-08T05:21:13.985Z,11.40
2018-05-08T05:23:41.511Z,12.10
2018-05-08T05:26:09.810Z,12.50
2018-05-08T05:28:37.362Z,12.50
2018-05-08T05:31:04.930Z,12.70
2018-05-08T05:33:32.466Z,13.00
2018-05-08T05:35:59.999Z,13.40
2018-05-08T05:38:27.563Z,13.80
2018-05-08T05:40:55.143Z,14.20
2018-05-08T05:43:22.705Z,14.50
2018-05-08T05:45:50.243Z,14.80
2018-05-08T05:48:17.802Z,15.00
2018-05-08T05:50:45.338Z,15.30
2018-05-08T05:53:13.646Z,15.90
2018-05-08T05:55:41.197Z,15.80
2018-05-08T05:58:08.731Z,16.20
2018-05-08T06:00:36.263Z,16.40
2018-05-08T06:03:03.822Z,16.60
2018-05-08T06:05:31.349Z,16.80
2018-05-08T06:07:58.875Z,17.00
2018-05-08T06:10:26.438Z,17.10
2018-05-08T06:12:53.987Z,17.10
2018-05-08T06:15:21.534Z,17.30
2018-05-08T06:17:49.061Z,17.70
2018-05-08T06:20:16.607Z,18.00
2018-05-08T06:22:44.948Z,19.20
2018-05-08T06:25:12.517Z,19.20
2018-05-08T06:27:40.055Z,19.70
2018-05-08T06:30:07.588Z,19.90
2018-05-08T06:32:35.911Z,19.90
2018-05-08T06:35:03.477Z,19.90
2018-05-08T06:37:31.094Z,19.90
2018-05-08T06:39:59.488Z,20.80
2018-05-08T06:42:26.982Z,20.80
2018-05-08T06:44:54.522Z,21.10
2018-05-08T06:47:22.099Z,21.20
2018-05-08T06:49:49.666Z,21.30
2018-05-08T06:52:17.200Z,21.20
2018-05-08T06:54:44.737Z,21.10
2018-05-08T06:57:12.290Z,21.20
2018-05-08T06:59:39.821Z,21.30
2018-05-08T07:02:07.367Z,21.20
2018-05-08T07:04:34.935Z,21.10
2018-05-08T07:07:02.506Z,21.10
2018-05-08T07:09:30.094Z,21.20
2018-05-08T07:11:57.674Z,21.30
2018-05-08T07:14:25.242Z,21.30
2018-05-08T07:16:52.798Z,21.20
2018-05-08T07:19:20.407Z,21.40
2018-05-08T07:21:47.941Z,21.20
2018-05-08T07:24:15.506Z,21.00
2018-05-08T07:26:43.057Z,20.80
2018-05-08T07:29:10.622Z,21.00
2018-05-08T07:31:38.168Z,20.90
2018-05-08T07:34:05.731Z,21.00
2018-05-08T07:36:33.274Z,21.20
2018-05-08T07:39:00.835Z,21.10
2018-05-08T07:41:28.406Z,21.20
2018-05-08T07:43:55.981Z,21.20
2018-05-08T07:46:23.540Z,21.00
2018-05-08T07:48:51.109Z,21.20
2018-05-08T07:51:18.674Z,21.00
2018-05-08T07:53:46.207Z,20.90
2018-05-08T07:56:13.770Z,21.10
2018-05-08T07:58:41.337Z,21.40
2018-05-08T08:01:08.906Z,21.30
2018-05-08T08:03:36.508Z,21.00
2018-05-08T08:06:04.131Z,21.00
2018-05-08T08:08:31.722Z,21.10
2018-05-08T08:10:59.326Z,21.40
2018-05-08T08:13:26.903Z,21.50
2018-05-08T08:18:29.148Z,21.40
2018-05-08T08:20:57.422Z,21.40
2018-05-08T08:23:24.995Z,21.40
2018-05-08T08:25:52.551Z,21.20
2018-05-08T08:28:20.112Z,21.50
2018-05-08T08:30:47.782Z,21.60
2018-05-08T08:33:15.333Z,22.00
2018-05-08T08:35:42.880Z,22.30
2018-05-08T08:38:10.425Z,22.50
2018-05-08T08:40:38.787Z,22.30
2018-05-08T08:43:06.398Z,22.30
2018-05-08T08:45:33.978Z,22.20
2018-05-08T08:48:01.543Z,22.30
2018-05-08T08:50:29.074Z,22.20
2018-05-08T08:52:57.382Z,22.10
2018-05-08T08:55:24.925Z,22.10
2018-05-08T08:57:53.216Z,22.30
2018-05-08T09:00:20.771Z,22.20
2018-05-08T09:02:49.064Z,22.20
2018-05-08T09:05:16.602Z,22.10
2018-05-08T09:07:44.142Z,22.30
2018-05-08T09:10:11.705Z,22.90
2018-05-08T09:12:39.275Z,22.80
2018-05-08T09:15:06.848Z,22.70
2018-05-08T09:17:34.414Z,22.70
2018-05-08T09:20:01.987Z,22.70
2018-05-08T09:22:29.554Z,22.60
2018-05-08T09:24:57.109Z,22.50
2018-05-08T09:27:24.770Z,22.70
2018-05-08T09:29:52.274Z,23.00
2018-05-08T09:32:19.842Z,23.00
2018-05-08T09:34:47.401Z,22.90
2018-05-08T09:37:14.954Z,23.00
2018-05-08T09:39:43.265Z,23.00
2018-05-08T09:42:10.872Z,22.90
2018-05-08T09:44:38.409Z,23.20
2018-05-08T09:47:05.990Z,23.30
2018-05-08T09:49:33.580Z,23.50
2018-05-08T09:52:01.882Z,23.80
2018-05-08T09:54:29.445Z,23.80
2018-05-08T09:56:56.977Z,23.80
2018-05-08T09:59:24.597Z,24.00
2018-05-08T10:01:52.226Z,23.60
2018-05-08T10:04:20.534Z,23.40
2018-05-08T10:06:48.132Z,23.40
2018-05-08T10:09:15.656Z,23.60
2018-05-08T10:11:43.222Z,23.90
2018-05-08T10:14:10.790Z,24.00
2018-05-08T10:16:38.369Z,23.90
2018-05-08T10:19:05.963Z,24.30
2018-05-08T10:21:33.589Z,24.50
2018-05-08T10:24:01.140Z,24.70
2018-05-08T10:26:28.744Z,24.60
2018-05-08T10:28:56.388Z,24.70
2018-05-08T10:31:23.974Z,24.90
2018-05-08T10:33:51.521Z,24.60
2018-05-08T10:36:19.079Z,24.60
2018-05-08T10:38:46.638Z,24.80
2018-05-08T10:41:14.204Z,24.80
2018-05-08T10:43:41.761Z,24.90
2018-05-08T10:46:09.292Z,25.00
2018-05-08T10:48:36.901Z,25.30
2018-05-08T10:51:04.434Z,25.40
2018-05-08T10:53:32.764Z,25.50
2018-05-08T10:56:00.326Z,25.50
2018-05-08T10:58:27.870Z,25.60
2018-05-08T11:00:55.434Z,25.20
2018-05-08T11:03:22.970Z,25.00
2018-05-08T11:05:50.501Z,25.40
2018-05-08T11:08:18.061Z,25.70
2018-05-08T11:10:45.593Z,25.80
2018-05-08T11:13:13.149Z,25.60
2018-05-08T11:15:40.705Z,25.40
2018-05-08T11:18:08.257Z,25.60
2018-05-08T11:20:36.582Z,25.20
2018-05-08T11:23:04.123Z,25.10
2018-05-08T11:25:31.687Z,25.10
2018-05-08T11:27:59.243Z,25.30
2018-05-08T11:30:26.781Z,25.30
2018-05-08T11:32:54.337Z,25.30
2018-05-08T11:35:21.874Z,25.40
2018-05-08T11:37:49.477Z,25.40
2018-05-08T11:40:17.787Z,25.30
2018-05-08T11:42:45.350Z,25.30
2018-05-08T11:45:12.901Z,25.30
2018-05-08T11:47:40.471Z,25.50
2018-05-08T11:50:08.047Z,25.30
2018-05-08T11:52:35.647Z,25.40
2018-05-08T11:55:03.235Z,25.30
2018-05-08T11:57:30.784Z,25.60
2018-05-08T11:59:58.348Z,25.70
2018-05-08T12:02:25.888Z,25.60
2018-05-08T12:04:53.461Z,25.60
2018-05-08T12:07:20.994Z,25.60
2018-05-08T12:09:48.544Z,25.40
2018-05-08T12:12:16.869Z,25.60
2018-05-08T12:14:44.426Z,25.50
2018-05-08T12:17:11.956Z,25.70
2018-05-08T12:19:40.254Z,25.80
2018-05-08T12:22:07.818Z,25.80
2018-05-08T12:24:35.497Z,25.80
2018-05-08T12:27:03.032Z,25.70
2018-05-08T12:29:31.350Z,25.30
2018-05-08T12:31:58.891Z,25.30
2018-05-08T12:34:26.519Z,25.20
2018-05-08T12:36:54.073Z,25.30
2018-05-08T12:39:21.612Z,25.10
2018-05-08T12:41:49.176Z,25.30
2018-05-08T12:44:16.737Z,25.10
2018-05-08T12:46:44.422Z,25.10
2018-05-08T12:49:11.900Z,25.30
2018-05-08T12:51:39.462Z,25.40
2018-05-08T12:54:07.027Z,25.40
2018-05-08T12:56:35.353Z,25.40
2018-05-08T12:59:02.997Z,25.40
2018-05-08T13:01:30.509Z,25.30
2018-05-08T13:03:58.053Z,25.20
2018-05-08T13:06:25.631Z,25.20
2018-05-08T13:08:53.164Z,25.20
2018-05-08T13:11:20.849Z,25.20
2018-05-08T13:13:48.480Z,25.30
2018-05-08T13:16:16.842Z,24.90
2018-05-08T13:18:44.451Z,24.90
2018-05-08T13:21:12.119Z,25.00
2018-05-08T13:23:39.662Z,24.90
2018-05-08T13:26:08.051Z,24.80
2018-05-08T13:28:35.626Z,24.80
2018-05-08T13:31:03.245Z,24.80
2018-05-08T13:33:30.818Z,25.00
2018-05-08T13:35:58.394Z,24.90
2018-05-08T13:38:26.731Z,25.00
2018-05-08T13:40:54.282Z,25.00
2018-05-08T13:43:21.833Z,25.00
2018-05-08T13:45:49.385Z,25.00
2018-05-08T13:48:16.973Z,25.10
2018-05-08T13:50:44.599Z,25.10
2018-05-08T13:53:12.908Z,25.40
2018-05-08T13:55:40.450Z,25.40
2018-05-08T13:58:08.827Z,25.10
2018-05-08T14:00:37.125Z,25.10
2018-05-08T14:03:05.455Z,25.10
2018-05-08T14:05:33.061Z,25.10
2018-05-08T14:08:00.587Z,25.10
2018-05-08T14:10:28.121Z,25.30
2018-05-08T14:12:55.654Z,25.10
2018-05-08T14:15:24.039Z,25.00
2018-05-08T14:17:51.569Z,24.90
2018-05-08T14:20:19.154Z,24.80
2018-05-08T14:22:47.486Z,24.60
2018-05-08T14:25:15.036Z,24.60
2018-05-08T14:27:42.598Z,24.50
2018-05-08T14:30:10.148Z,24.60
2018-05-08T14:32:37.690Z,24.70
2018-05-08T14:35:06.022Z,24.60
2018-05-08T14:37:33.577Z,24.60
2018-05-08T14:40:01.115Z,24.50
2018-05-08T14:42:28.646Z,24.40
2018-05-08T14:44:56.211Z,24.40
2018-05-08T14:47:23.787Z,24.50
2018-05-08T14:49:51.379Z,24.40
2018-05-08T14:52:18.919Z,24.40
2018-05-08T14:54:47.250Z,24.50
2018-05-08T14:57:14.816Z,24.50
2018-05-08T14:59:42.351Z,24.60
2018-05-08T15:02:09.943Z,24.60
2018-05-08T15:04:37.533Z,24.40
2018-05-08T15:07:05.122Z,24.40
2018-05-08T15:09:33.548Z,24.20
2018-05-08T15:12:01.110Z,24.20
2018-05-08T15:14:28.679Z,24.20
2018-05-08T15:16:56.228Z,24.10
2018-05-08T15:19:23.809Z,24.10
2018-05-08T15:21:51.382Z,24.00
2018-05-08T15:24:18.962Z,24.20
2018-05-08T15:26:46.500Z,24.20
2018-05-08T15:29:14.047Z,24.10
2018-05-08T15:31:41.590Z,24.20
2018-05-08T15:34:09.900Z,24.10
2018-05-08T15:36:37.459Z,24.10
2018-05-08T15:39:05.846Z,24.00
2018-05-08T15:41:33.452Z,24.00
2018-05-08T15:44:00.989Z,24.00
2018-05-08T15:46:28.523Z,23.90
2018-05-08T15:48:56.834Z,23.80
2018-05-08T15:51:24.389Z,23.80
2018-05-08T15:53:51.946Z,23.90
2018-05-08T15:56:19.535Z,23.90
2018-05-08T15:58:47.117Z,23.80
2018-05-08T16:01:14.681Z,23.90
2018-05-08T16:03:42.246Z,23.90
2018-05-08T16:06:09.814Z,23.90
2018-05-08T16:08:37.379Z,23.60
2018-05-08T16:11:04.950Z,23.60
2018-05-08T16:13:32.733Z,23.70
2018-05-08T16:16:00.872Z,23.40
2018-05-08T16:18:28.415Z,23.40
2018-05-08T16:20:56.043Z,23.40
2018-05-08T16:23:24.475Z,23.40
2018-05-08T16:25:52.028Z,23.20
2018-05-08T16:28:19.584Z,23.20
2018-05-08T16:30:47.142Z,23.20
2018-05-08T16:33:14.681Z,23.10
2018-05-08T16:35:43.015Z,23.00
2018-05-08T16:38:10.623Z,23.00
2018-05-08T16:40:38.190Z,22.90
2018-05-08T16:43:06.547Z,22.90
2018-05-08T16:45:34.136Z,22.90
2018-05-08T16:48:01.699Z,22.80
2018-05-08T16:50:30.034Z,22.70
2018-05-08T16:52:57.583Z,22.70
2018-05-08T16:55:25.159Z,22.70
2018-05-08T16:57:52.700Z,22.60
2018-05-08T17:00:20.307Z,22.50
2018-05-08T17:02:47.874Z,22.50
2018-05-08T17:05:15.413Z,22.40
2018-05-08T17:07:42.973Z,22.30
2018-05-08T17:10:10.527Z,22.30
2018-05-08T17:12:38.099Z,22.20
2018-05-08T17:15:05.712Z,22.20
2018-05-08T17:17:33.283Z,22.10
2018-05-08T17:20:01.665Z,22.00
2018-05-08T17:22:29.239Z,22.00
2018-05-08T17:24:57.580Z,21.90
2018-05-08T17:27:25.140Z,21.90
2018-05-08T17:29:52.702Z,21.80
2018-05-08T17:32:20.241Z,21.80
2018-05-08T17:34:47.787Z,21.80
2018-05-08T17:37:16.115Z,21.60
2018-05-08T17:39:43.697Z,21.60
2018-05-08T17:42:11.294Z,21.50
2018-05-08T17:44:39.617Z,21.40
2018-05-08T17:47:07.157Z,21.30
2018-05-08T17:49:34.707Z,21.30
2018-05-08T17:52:03.039Z,21.10
2018-05-08T17:54:30.635Z,21.10
2018-05-08T17:56:58.199Z,21.10
2018-05-08T17:59:26.516Z,21.00
2018-05-08T18:01:54.073Z,20.90
2018-05-08T18:04:21.664Z,20.90
2018-05-08T18:06:49.216Z,20.90
2018-05-08T18:09:16.760Z,20.80
2018-05-08T18:11:45.129Z,20.70
2018-05-08T18:14:13.524Z,20.60
2018-05-08T18:16:41.854Z,20.60
2018-05-08T18:19:09.399Z,20.50
2018-05-08T18:21:36.976Z,20.50
2018-05-08T18:24:04.566Z,20.40
2018-05-08T18:26:32.120Z,20.30
2018-05-08T18:28:59.677Z,20.30
2018-05-08T18:31:27.255Z,20.20
2018-05-08T18:33:54.800Z,20.20
2018-05-08T18:36:22.383Z,20.00
2018-05-08T18:38:49.950Z,20.00
2018-05-08T18:41:17.519Z,19.90
2018-05-08T18:43:45.104Z,19.70
2018-05-08T18:46:13.406Z,19.60
2018-05-08T18:48:41.002Z,19.60
2018-05-08T18:51:08.542Z,19.50
2018-05-08T18:53:36.082Z,19.60
2018-05-08T18:56:04.447Z,19.40
2018-05-08T18:58:32.001Z,19.40
2018-05-08T19:00:59.541Z,19.30
2018-05-08T19:03:27.111Z,19.20
2018-05-08T19:05:54.918Z,19.10
2018-05-08T19:08:23.227Z,19.20
2018-05-08T19:10:56.472Z,19.10
2018-05-08T19:13:24.064Z,19.10
2018-05-08T19:15:57.862Z,19.00
2018-05-08T19:18:31.151Z,19.00
2018-05-08T19:20:58.843Z,19.00
2018-05-08T19:23:26.431Z,18.90
2018-05-08T19:25:53.993Z,18.90
2018-05-08T19:28:27.274Z,18.80
2018-05-08T19:30:59.914Z,18.80
2018-05-08T19:33:27.515Z,18.70
2018-05-08T19:36:01.495Z,18.70
2018-05-08T19:38:29.083Z,18.70
2018-05-08T19:40:57.410Z,18.60
2018-05-08T19:43:24.943Z,18.60
2018-05-08T19:45:52.506Z,18.50
2018-05-08T19:48:20.042Z,18.40
2018-05-08T19:50:47.569Z,18.40
2018-05-08T19:53:15.130Z,18.20
2018-05-08T19:55:42.745Z,18.10
2018-05-08T19:58:11.051Z,18.00
2018-05-08T20:00:38.611Z,18.00
2018-05-08T20:03:06.195Z,18.00
2018-05-08T20:05:33.775Z,17.90
2018-05-08T20:08:01.350Z,17.90
2018-05-08T20:10:28.900Z,17.80
2018-05-08T20:12:56.462Z,17.70
2018-05-08T20:15:24.116Z,17.60
2018-05-08T20:17:51.659Z,17.50
2018-05-08T20:20:19.208Z,17.50
2018-05-08T20:22:47.529Z,17.30
2018-05-08T20:25:15.128Z,17.30
2018-05-08T20:27:42.670Z,17.20
2018-05-08T20:30:10.249Z,17.10
2018-05-08T20:32:37.786Z,16.90
2018-05-08T20:35:05.337Z,16.80
2018-05-08T20:37:32.939Z,16.80
2018-05-08T20:40:00.479Z,16.50
2018-05-08T20:42:28.039Z,16.40
2018-05-08T20:44:55.595Z,16.40
2018-05-08T20:47:23.154Z,16.30
2018-05-08T20:49:50.719Z,16.20
2018-05-08T20:52:18.278Z,16.30
2018-05-08T20:54:45.847Z,16.20
2018-05-08T20:57:13.387Z,16.10
2018-05-08T20:59:41.711Z,16.00
2018-05-08T21:02:09.275Z,15.90
2018-05-08T21:04:36.839Z,15.90
2018-05-08T21:07:04.379Z,15.90
2018-05-08T21:09:31.936Z,15.90
2018-05-08T21:12:00.258Z,15.80
2018-05-08T21:14:27.822Z,15.80
2018-05-08T21:16:55.373Z,15.70
2018-05-08T21:19:22.911Z,15.70
2018-05-08T21:21:50.448Z,15.70
2018-05-08T21:24:17.979Z,15.70
2018-05-08T21:26:45.538Z,15.70
2018-05-08T21:29:18.758Z,15.70
2018-05-08T21:31:46.320Z,15.70
2018-05-08T21:34:13.864Z,15.70
2018-05-08T21:36:41.419Z,15.70
2018-05-08T21:39:08.994Z,15.70
2018-05-08T21:41:36.578Z,15.60
2018-05-08T21:44:04.147Z,15.60
2018-05-08T21:46:31.742Z,15.60
2018-05-08T21:49:00.067Z,15.40
2018-05-08T21:51:27.616Z,15.30
2018-05-08T21:53:55.176Z,15.30
2018-05-08T21:56:22.730Z,15.20
2018-05-08T21:58:50.319Z,15.10
2018-05-08T22:01:17.884Z,15.00
2018-05-08T22:03:45.447Z,15.00
2018-05-08T22:06:12.989Z,15.00
2018-05-08T22:08:40.549Z,14.90
2018-05-08T22:11:08.127Z,14.90
2018-05-08T22:13:35.690Z,14.90
2018-05-08T22:16:03.241Z,14.80
2018-05-08T22:18:30.776Z,14.80
2018-05-08T22:20:58.334Z,14.80
2018-05-08T22:23:25.917Z,14.80
2018-05-08T22:25:54.214Z,14.80
2018-05-08T22:28:21.770Z,14.70
2018-05-08T22:30:49.339Z,14.70
2018-05-08T22:33:16.873Z,14.60
2018-05-08T22:35:44.438Z,14.60
2018-05-08T22:38:11.974Z,14.50
2018-05-08T22:40:39.529Z,14.50
2018-05-08T22:43:07.058Z,14.40
2018-05-08T22:45:34.619Z,14.50
2018-05-08T22:48:02.188Z,14.50
2018-05-08T22:50:29.726Z,14.50
2018-05-08T22:52:58.063Z,14.60
2018-05-08T22:55:25.632Z,14.60
2018-05-08T22:57:53.198Z,14.60
2018-05-08T23:00:21.703Z,14.60
2018-05-08T23:02:49.254Z,14.60
2018-05-08T23:05:16.798Z,14.60
2018-05-08T23:07:44.382Z,14.50
2018-05-08T23:10:11.942Z,14.40
2018-05-08T23:12:39.496Z,14.40
2018-05-08T23:15:07.062Z,14.40
2018-05-08T23:17:34.661Z,14.40
2018-05-08T23:20:02.184Z,14.40
2018-05-08T23:22:29.709Z,14.40
2018-05-08T23:24:58.020Z,14.40
2018-05-08T23:27:25.579Z,14.40
2018-05-08T23:29:53.195Z,14.40
2018-05-08T23:32:20.720Z,14.30
2018-05-08T23:34:48.266Z,14.30
2018-05-08T23:37:15.806Z,14.20
2018-05-08T23:39:44.126Z,14.20
2018-05-08T23:42:11.663Z,14.20
2018-05-08T23:44:40.055Z,14.20
2018-05-08T23:47:07.586Z,14.20
2018-05-08T23:49:35.183Z,14.30
2018-05-08T23:52:02.718Z,14.30
2018-05-08T23:54:30.268Z,14.30
2018-05-08T23:56:57.831Z,14.30
2018-05-08T23:59:25.382Z,14.30
